sensor_id;sensor_type;location;lat;lon;timestamp;pressure;altitude;pressure_sealevel;temperature;humidity
28008;BME280;15333;50.010;20.020;2023-05-20T00:01:38;99727.84;;;10.10;100.00
28008;BME280;15333;50.010;20.020;2023-05-20T00:04:38;99726.91;;;10.11;100.00
28008;BME280;15333;50.010;20.020;2023-05-20T00:07:41;99722.78;;;10.05;100.00
28008;BME280;15333;50.010;20.020;2023-05-20T00:10:42;99732.78;;;10.02;100.00
28008;BME280;15333;50.010;20.020;2023-05-20T00:13:43;99741.22;;;10.10;100.00
28008;BME280;15333;50.010;20.020;2023-05-20T00:16:44;99733.63;;;10.18;100.00
28008;BME280;15333;50.010;20.020;2023-05-20T00:19:45;99734.06;;;10.26;100.00
28008;BME280;15333;50.010;20.020;2023-05-20T00:22:46;99729.28;;;10.31;100.00
28008;BME280;15333;50.010;20.020;2023-05-20T00:25:48;99731.09;;;10.31;100.00
28008;BME280;15333;50.010;20.020;2023-05-20T00:28:49;99731.75;;;10.20;100.00
28008;BME280;15333;50.010;20.020;2023-05-20T00:31:50;99728.78;;;10.09;100.00
28008;BME280;15333;50.010;20.020;2023-05-20T00:34:57;99733.28;;;10.24;100.00
28008;BME280;15333;50.010;20.020;2023-05-20T00:37:59;99724.13;;;10.28;100.00
28008;BME280;15333;50.010;20.020;2023-05-20T00:41:00;99728.69;;;10.26;100.00
28008;BME280;15333;50.010;20.020;2023-05-20T00:44:01;99719.91;;;10.24;100.00
28008;BME280;15333;50.010;20.020;2023-05-20T00:47:01;99718.63;;;10.15;100.00
28008;BME280;15333;50.010;20.020;2023-05-20T00:50:03;99710.50;;;10.17;100.00
28008;BME280;15333;50.010;20.020;2023-05-20T00:53:05;99710.50;;;10.17;100.00
28008;BME280;15333;50.010;20.020;2023-05-20T00:56:07;99708.75;;;10.16;100.00
28008;BME280;15333;50.010;20.020;2023-05-20T00:59:08;99717.75;;;10.15;100.00
28008;BME280;15333;50.010;20.020;2023-05-20T01:02:09;99717.75;;;10.15;100.00
28008;BME280;15333;50.010;20.020;2023-05-20T01:05:10;99717.75;;;10.15;100.00
28008;BME280;15333;50.010;20.020;2023-05-20T01:08:11;99721.38;;;10.14;100.00
28008;BME280;15333;50.010;20.020;2023-05-20T01:11:30;99716.19;;;10.11;100.00
28008;BME280;15333;50.010;20.020;2023-05-20T01:14:37;99713.59;;;10.09;100.00
28008;BME280;15333;50.010;20.020;2023-05-20T01:17:50;99707.59;;;10.06;100.00
28008;BME280;15333;50.010;20.020;2023-05-20T01:20:53;99704.34;;;10.01;100.00
28008;BME280;15333;50.010;20.020;2023-05-20T01:23:55;99706.03;;;10.02;100.00
28008;BME280;15333;50.010;20.020;2023-05-20T01:26:56;99704.34;;;10.01;100.00
28008;BME280;15333;50.010;20.020;2023-05-20T01:29:57;99704.34;;;10.01;100.00
28008;BME280;15333;50.010;20.020;2023-05-20T01:33:01;99697.25;;;10.00;100.00
28008;BME280;15333;50.010;20.020;2023-05-20T01:36:05;99698.22;;;9.99;100.00
28008;BME280;15333;50.010;20.020;2023-05-20T01:39:07;99696.41;;;9.99;100.00
28008;BME280;15333;50.010;20.020;2023-05-20T01:42:09;99694.59;;;10.00;100.00
28008;BME280;15333;50.010;20.020;2023-05-20T01:45:11;99694.50;;;10.01;100.00
28008;BME280;15333;50.010;20.020;2023-05-20T01:48:12;99683.28;;;9.95;100.00
28008;BME280;15333;50.010;20.020;2023-05-20T01:51:13;99685.69;;;9.99;100.00
28008;BME280;15333;50.010;20.020;2023-05-20T01:54:14;99693.63;;;10.01;100.00
28008;BME280;15333;50.010;20.020;2023-05-20T01:57:22;99697.41;;;9.97;100.00
28008;BME280;15333;50.010;20.020;2023-05-20T02:00:24;99696.06;;;9.90;100.00
28008;BME280;15333;50.010;20.020;2023-05-20T02:03:25;99689.97;;;10.02;100.00
28008;BME280;15333;50.010;20.020;2023-05-20T02:06:26;99689.22;;;10.00;100.00
28008;BME280;15333;50.010;20.020;2023-05-20T02:09:29;99694.66;;;9.98;100.00
28008;BME280;15333;50.010;20.020;2023-05-20T02:12:29;99693.63;;;10.01;100.00
28008;BME280;15333;50.010;20.020;2023-05-20T02:15:30;99699.00;;;10.01;100.00
28008;BME280;15333;50.010;20.020;2023-05-20T02:18:31;99698.78;;;10.04;100.00
28008;BME280;15333;50.010;20.020;2023-05-20T02:21:35;99694.22;;;10.06;100.00
28008;BME280;15333;50.010;20.020;2023-05-20T02:24:36;99700.50;;;10.05;100.00
28008;BME280;15333;50.010;20.020;2023-05-20T02:27:37;99698.00;;;10.02;100.00
28008;BME280;15333;50.010;20.020;2023-05-20T02:30:39;99703.09;;;10.06;100.00
28008;BME280;15333;50.010;20.020;2023-05-20T02:33:40;99693.94;;;10.10;100.00
28008;BME280;15333;50.010;20.020;2023-05-20T02:36:41;99699.56;;;10.06;100.00
28008;BME280;15333;50.010;20.020;2023-05-20T02:39:42;99688.78;;;10.07;100.00
28008;BME280;15333;50.010;20.020;2023-05-20T02:42:43;99703.09;;;10.06;100.00
28008;BME280;15333;50.010;20.020;2023-05-20T02:45:44;99695.88;;;10.08;100.00
28008;BME280;15333;50.010;20.020;2023-05-20T02:48:47;99704.84;;;10.07;100.00
28008;BME280;15333;50.010;20.020;2023-05-20T02:51:48;99702.16;;;10.07;100.00
28008;BME280;15333;50.010;20.020;2023-05-20T02:54:49;99706.56;;;10.08;100.00
28008;BME280;15333;50.010;20.020;2023-05-20T02:57:51;99703.09;;;10.06;100.00
28008;BME280;15333;50.010;20.020;2023-05-20T03:00:52;99702.03;;;10.09;100.00
28008;BME280;15333;50.010;20.020;2023-05-20T03:03:54;99703.78;;;10.10;100.00
28008;BME280;15333;50.010;20.020;2023-05-20T03:06:55;99694.78;;;10.11;100.00
28008;BME280;15333;50.010;20.020;2023-05-20T03:09:57;99703.59;;;10.13;100.00
28008;BME280;15333;50.010;20.020;2023-05-20T03:12:58;99706.28;;;10.13;100.00
28008;BME280;15333;50.010;20.020;2023-05-20T03:15:59;99708.00;;;10.14;100.00
28008;BME280;15333;50.010;20.020;2023-05-20T03:19:01;99710.84;;;10.11;100.00
28008;BME280;15333;50.010;20.020;2023-05-20T03:22:02;99714.97;;;10.16;100.00
28008;BME280;15333;50.010;20.020;2023-05-20T03:25:03;99720.59;;;10.12;100.00
28008;BME280;15333;50.010;20.020;2023-05-20T03:28:06;99719.66;;;10.13;100.00
28008;BME280;15333;50.010;20.020;2023-05-20T03:31:09;99720.00;;;10.23;100.00
28008;BME280;15333;50.010;20.020;2023-05-20T03:34:10;99713.59;;;10.25;100.00
28008;BME280;15333;50.010;20.020;2023-05-20T03:37:11;99711.69;;;10.27;100.00
28008;BME280;15333;50.010;20.020;2023-05-20T03:40:12;99709.97;;;10.26;100.00
28008;BME280;15333;50.010;20.020;2023-05-20T03:43:14;99703.75;;;10.26;100.00
28008;BME280;15333;50.010;20.020;2023-05-20T03:46:15;99702.91;;;10.25;100.00
28008;BME280;15333;50.010;20.020;2023-05-20T03:49:16;99715.16;;;10.29;100.00
28008;BME280;15333;50.010;20.020;2023-05-20T03:52:18;99712.19;;;10.34;100.00
28008;BME280;15333;50.010;20.020;2023-05-20T03:55:19;99716.84;;;10.30;100.00
28008;BME280;15333;50.010;20.020;2023-05-20T03:58:21;99713.84;;;10.36;100.00
28008;BME280;15333;50.010;20.020;2023-05-20T04:01:22;99709.22;;;10.38;100.00
28008;BME280;15333;50.010;20.020;2023-05-20T04:04:26;99704.56;;;10.42;100.00
28008;BME280;15333;50.010;20.020;2023-05-20T04:07:28;99708.38;;;10.38;100.00
28008;BME280;15333;50.010;20.020;2023-05-20T04:10:31;99694.91;;;10.39;100.00
28008;BME280;15333;50.010;20.020;2023-05-20T04:13:32;99705.59;;;10.39;100.00
28008;BME280;15333;50.010;20.020;2023-05-20T04:16:33;99708.13;;;10.42;100.00
28008;BME280;15333;50.010;20.020;2023-05-20T04:19:34;99714.25;;;10.44;100.00
28008;BME280;15333;50.010;20.020;2023-05-20T04:22:36;99705.72;;;10.52;100.00
28008;BME280;15333;50.010;20.020;2023-05-20T04:25:38;99702.97;;;10.53;100.00
28008;BME280;15333;50.010;20.020;2023-05-20T04:28:42;99707.75;;;10.63;100.00
28008;BME280;15333;50.010;20.020;2023-05-20T04:31:42;99711.22;;;10.65;100.00
28008;BME280;15333;50.010;20.020;2023-05-20T04:34:45;99702.22;;;10.66;100.00
28008;BME280;15333;50.010;20.020;2023-05-20T04:37:47;99701.66;;;10.75;100.00
28008;BME280;15333;50.010;20.020;2023-05-20T04:40:48;99702.72;;;10.72;100.00
28008;BME280;15333;50.010;20.020;2023-05-20T04:43:49;99708.31;;;10.68;100.00
28008;BME280;15333;50.010;20.020;2023-05-20T04:46:51;99708.94;;;10.73;100.00
28008;BME280;15333;50.010;20.020;2023-05-20T04:49:52;99706.81;;;10.78;100.00
28008;BME280;15333;50.010;20.020;2023-05-20T04:52:53;99701.75;;;10.87;100.00
28008;BME280;15333;50.010;20.020;2023-05-20T04:55:55;99711.41;;;10.90;100.00
28008;BME280;15333;50.010;20.020;2023-05-20T04:58:57;99712.97;;;10.94;100.00
28008;BME280;15333;50.010;20.020;2023-05-20T05:01:59;99717.94;;;11.00;100.00
28008;BME280;15333;50.010;20.020;2023-05-20T05:05:00;99724.22;;;10.85;100.00
28008;BME280;15333;50.010;20.020;2023-05-20T05:08:02;99718.88;;;10.85;100.00
28008;BME280;15333;50.010;20.020;2023-05-20T05:11:05;99721.47;;;10.86;100.00
28008;BME280;15333;50.010;20.020;2023-05-20T05:14:06;99721.56;;;10.99;100.00
28008;BME280;15333;50.010;20.020;2023-05-20T05:17:08;99725.19;;;10.98;100.00
28008;BME280;15333;50.010;20.020;2023-05-20T05:20:09;99726.72;;;11.02;100.00
28008;BME280;15333;50.010;20.020;2023-05-20T05:23:11;99727.09;;;10.96;100.00
28008;BME280;15333;50.010;20.020;2023-05-20T05:26:12;99727.47;;;10.90;100.00
28008;BME280;15333;50.010;20.020;2023-05-20T05:29:13;99717.53;;;11.06;100.00
28008;BME280;15333;50.010;20.020;2023-05-20T05:32:14;99721.94;;;11.07;100.00
28008;BME280;15333;50.010;20.020;2023-05-20T05:35:15;99720.38;;;11.17;100.00
28008;BME280;15333;50.010;20.020;2023-05-20T05:38:16;99716.97;;;11.15;100.00
28008;BME280;15333;50.010;20.020;2023-05-20T05:41:18;99727.69;;;11.15;100.00
28008;BME280;15333;50.010;20.020;2023-05-20T05:44:18;99719.63;;;11.29;100.00
28008;BME280;15333;50.010;20.020;2023-05-20T05:47:20;99728.97;;;11.51;100.00
28008;BME280;15333;50.010;20.020;2023-05-20T05:50:21;99722.53;;;11.53;100.00
28008;BME280;15333;50.010;20.020;2023-05-20T05:53:22;99729.16;;;11.48;100.00
28008;BME280;15333;50.010;20.020;2023-05-20T05:56:23;99724.72;;;11.61;100.00
28008;BME280;15333;50.010;20.020;2023-05-20T05:59:24;99726.06;;;11.68;100.00
28008;BME280;15333;50.010;20.020;2023-05-20T06:02:26;99713.81;;;11.64;100.00
28008;BME280;15333;50.010;20.020;2023-05-20T06:05:28;99712.28;;;11.74;100.00
28008;BME280;15333;50.010;20.020;2023-05-20T06:08:30;99714.75;;;11.77;100.00
28008;BME280;15333;50.010;20.020;2023-05-20T06:11:31;99721.69;;;11.94;100.00
28008;BME280;15333;50.010;20.020;2023-05-20T06:14:32;99718.84;;;11.83;100.00
28008;BME280;15333;50.010;20.020;2023-05-20T06:17:33;99721.22;;;11.87;100.00
28008;BME280;15333;50.010;20.020;2023-05-20T06:20:34;99719.53;;;11.86;100.00
28008;BME280;15333;50.010;20.020;2023-05-20T06:23:35;99715.47;;;11.93;100.00
28008;BME280;15333;50.010;20.020;2023-05-20T06:26:39;99723.84;;;12.01;100.00
28008;BME280;15333;50.010;20.020;2023-05-20T06:29:40;99721.94;;;12.03;100.00
28008;BME280;15333;50.010;20.020;2023-05-20T06:39:36;99718.13;;;12.20;100.00
28008;BME280;15333;50.010;20.020;2023-05-20T06:42:37;99710.88;;;12.35;100.00
28008;BME280;15333;50.010;20.020;2023-05-20T06:45:39;99708.97;;;12.62;100.00
28008;BME280;15333;50.010;20.020;2023-05-20T06:49:03;99710.25;;;12.94;100.00
28008;BME280;15333;50.010;20.020;2023-05-20T06:52:04;99713.25;;;13.03;100.00
28008;BME280;15333;50.010;20.020;2023-05-20T06:55:06;99705.97;;;13.05;100.00
28008;BME280;15333;50.010;20.020;2023-05-20T06:58:09;99706.06;;;13.16;100.00
28008;BME280;15333;50.010;20.020;2023-05-20T07:01:11;99693.38;;;13.18;100.00
28008;BME280;15333;50.010;20.020;2023-05-20T07:04:14;99687.44;;;13.38;100.00
28008;BME280;15333;50.010;20.020;2023-05-20T07:07:15;99677.44;;;13.40;100.00
28008;BME280;15333;50.010;20.020;2023-05-20T07:10:16;99689.34;;;13.49;100.00
28008;BME280;15333;50.010;20.020;2023-05-20T07:13:17;99675.09;;;13.59;100.00
28008;BME280;15333;50.010;20.020;2023-05-20T07:16:18;99678.75;;;13.58;100.00
28008;BME280;15333;50.010;20.020;2023-05-20T07:19:26;99670.88;;;13.31;100.00
28008;BME280;15333;50.010;20.020;2023-05-20T07:22:28;99666.81;;;13.26;100.00
28008;BME280;15333;50.010;20.020;2023-05-20T07:25:42;99673.88;;;13.40;100.00
28008;BME280;15333;50.010;20.020;2023-05-20T07:28:44;99663.88;;;13.65;100.00
28008;BME280;15333;50.010;20.020;2023-05-20T07:31:46;99657.88;;;13.86;100.00
28008;BME280;15333;50.010;20.020;2023-05-20T07:34:47;99659.53;;;13.99;100.00
28008;BME280;15333;50.010;20.020;2023-05-20T07:37:48;99656.69;;;14.25;100.00
28008;BME280;15333;50.010;20.020;2023-05-20T07:40:50;99656.47;;;14.28;100.00
28008;BME280;15333;50.010;20.020;2023-05-20T07:43:51;99657.75;;;14.22;100.00
28008;BME280;15333;50.010;20.020;2023-05-20T07:46:54;99668.34;;;14.36;100.00
28008;BME280;15333;50.010;20.020;2023-05-20T07:49:55;99667.94;;;14.19;100.00
28008;BME280;15333;50.010;20.020;2023-05-20T07:52:56;99663.88;;;14.13;100.00
28008;BME280;15333;50.010;20.020;2023-05-20T07:55:59;99670.50;;;14.55;100.00
28008;BME280;15333;50.010;20.020;2023-05-20T07:59:02;99660.72;;;14.30;100.00
28008;BME280;15333;50.010;20.020;2023-05-20T08:02:08;99666.22;;;14.18;100.00
28008;BME280;15333;50.010;20.020;2023-05-20T08:05:10;99660.25;;;14.36;100.00
28008;BME280;15333;50.010;20.020;2023-05-20T08:08:11;99657.63;;;14.47;100.00
28008;BME280;15333;50.010;20.020;2023-05-20T08:11:26;99648.59;;;14.60;100.00
28008;BME280;15333;50.010;20.020;2023-05-20T08:14:27;99654.50;;;14.87;100.00
28008;BME280;15333;50.010;20.020;2023-05-20T08:17:29;99652.03;;;14.73;100.00
28008;BME280;15333;50.010;20.020;2023-05-20T08:20:30;99653.22;;;14.46;100.00
28008;BME280;15333;50.010;20.020;2023-05-20T08:23:31;99650.53;;;14.46;100.00
28008;BME280;15333;50.010;20.020;2023-05-20T08:26:32;99648.59;;;14.48;100.00
28008;BME280;15333;50.010;20.020;2023-05-20T08:29:34;99655.00;;;14.70;100.00
28008;BME280;15333;50.010;20.020;2023-05-20T08:32:36;99647.28;;;14.76;100.00
28008;BME280;15333;50.010;20.020;2023-05-20T08:35:37;99638.59;;;14.84;100.00
28008;BME280;15333;50.010;20.020;2023-05-20T08:38:39;99647.88;;;14.80;100.00
28008;BME280;15333;50.010;20.020;2023-05-20T08:41:41;99633.19;;;14.84;100.00
28008;BME280;15333;50.010;20.020;2023-05-20T08:44:43;99639.41;;;15.07;100.00
28008;BME280;15333;50.010;20.020;2023-05-20T08:47:46;99646.88;;;15.14;100.00
28008;BME280;15333;50.010;20.020;2023-05-20T08:50:49;99648.38;;;14.96;100.00
28008;BME280;15333;50.010;20.020;2023-05-20T08:53:50;99649.25;;;14.97;100.00
28008;BME280;15333;50.010;20.020;2023-05-20T08:56:51;99651.50;;;15.35;100.00
28008;BME280;15333;50.010;20.020;2023-05-20T08:59:54;99641.72;;;15.22;100.00
28008;BME280;15333;50.010;20.020;2023-05-20T09:02:58;99632.03;;;15.31;100.00
28008;BME280;15333;50.010;20.020;2023-05-20T09:06:07;99637.34;;;15.10;100.00
28008;BME280;15333;50.010;20.020;2023-05-20T09:09:10;99633.84;;;15.42;100.00
28008;BME280;15333;50.010;20.020;2023-05-20T09:12:11;99631.22;;;15.08;100.00
28008;BME280;15333;50.010;20.020;2023-05-20T09:15:12;99631.41;;;15.27;100.00
28008;BME280;15333;50.010;20.020;2023-05-20T09:18:14;99634.34;;;15.58;100.00
28008;BME280;15333;50.010;20.020;2023-05-20T09:21:14;99626.53;;;15.55;100.00
28008;BME280;15333;50.010;20.020;2023-05-20T09:24:21;99632.03;;;15.85;100.00
28008;BME280;15333;50.010;20.020;2023-05-20T09:27:22;99633.34;;;15.70;100.00
28008;BME280;15333;50.010;20.020;2023-05-20T09:30:24;99637.50;;;15.74;100.00
28008;BME280;15333;50.010;20.020;2023-05-20T09:33:29;99633.53;;;15.78;100.00
28008;BME280;15333;50.010;20.020;2023-05-20T09:36:33;99626.41;;;15.88;100.00
28008;BME280;15333;50.010;20.020;2023-05-20T09:39:43;99630.16;;;15.97;100.00
28008;BME280;15333;50.010;20.020;2023-05-20T09:43:04;99614.78;;;16.29;100.00
28008;BME280;15333;50.010;20.020;2023-05-20T09:46:10;99623.81;;;16.39;100.00
28008;BME280;15333;50.010;20.020;2023-05-20T09:49:12;99615.69;;;16.81;100.00
28008;BME280;15333;50.010;20.020;2023-05-20T09:52:17;99608.66;;;17.09;100.00
28008;BME280;15333;50.010;20.020;2023-05-20T09:55:21;99618.44;;;16.91;100.00
28008;BME280;15333;50.010;20.020;2023-05-20T09:58:22;99609.22;;;16.72;100.00
28008;BME280;15333;50.010;20.020;2023-05-20T10:01:24;99611.75;;;16.64;100.00
28008;BME280;15333;50.010;20.020;2023-05-20T10:04:26;99615.81;;;16.59;100.00
28008;BME280;15333;50.010;20.020;2023-05-20T10:20:19;99607.75;;;16.89;100.00
28008;BME280;15333;50.010;20.020;2023-05-20T10:23:26;99602.16;;;17.21;100.00
28008;BME280;15333;50.010;20.020;2023-05-20T10:26:34;99602.88;;;17.73;100.00
28008;BME280;15333;50.010;20.020;2023-05-20T10:29:48;99594.41;;;18.33;99.28
28008;BME280;15333;50.010;20.020;2023-05-20T10:32:57;99600.28;;;18.38;92.71
28008;BME280;15333;50.010;20.020;2023-05-20T10:35:59;99590.19;;;17.83;93.31
28008;BME280;15333;50.010;20.020;2023-05-20T10:39:02;99596.88;;;17.98;94.29
28008;BME280;15333;50.010;20.020;2023-05-20T10:42:08;99598.59;;;17.99;93.16
28008;BME280;15333;50.010;20.020;2023-05-20T10:45:11;99601.44;;;18.17;90.93
28008;BME280;15333;50.010;20.020;2023-05-20T10:48:19;99603.16;;;18.08;91.22
28008;BME280;15333;50.010;20.020;2023-05-20T10:51:21;99603.44;;;18.15;91.49
28008;BME280;15333;50.010;20.020;2023-05-20T10:54:22;99594.31;;;17.87;92.12
28008;BME280;15333;50.010;20.020;2023-05-20T10:57:25;99611.44;;;17.97;92.05
28008;BME280;15333;50.010;20.020;2023-05-20T11:00:26;99599.59;;;18.17;90.51
28008;BME280;15333;50.010;20.020;2023-05-20T11:03:28;99592.00;;;18.30;88.45
28008;BME280;15333;50.010;20.020;2023-05-20T11:06:29;99586.53;;;18.50;87.95
28008;BME280;15333;50.010;20.020;2023-05-20T11:09:30;99580.78;;;18.82;87.71
28008;BME280;15333;50.010;20.020;2023-05-20T11:12:31;99582.25;;;19.31;85.27
28008;BME280;15333;50.010;20.020;2023-05-20T11:15:34;99568.34;;;19.06;84.91
28008;BME280;15333;50.010;20.020;2023-05-20T11:18:35;99568.22;;;18.81;86.95
28008;BME280;15333;50.010;20.020;2023-05-20T11:21:42;99556.84;;;19.22;84.82
28008;BME280;15333;50.010;20.020;2023-05-20T11:24:43;99546.47;;;19.17;82.65
28008;BME280;15333;50.010;20.020;2023-05-20T11:27:45;99542.81;;;19.27;82.48
28008;BME280;15333;50.010;20.020;2023-05-20T11:30:46;99539.09;;;18.83;83.29
28008;BME280;15333;50.010;20.020;2023-05-20T11:33:49;99529.66;;;19.04;84.70
28008;BME280;15333;50.010;20.020;2023-05-20T11:36:57;99535.84;;;18.69;84.44
28008;BME280;15333;50.010;20.020;2023-05-20T11:40:05;99534.63;;;18.45;85.75
28008;BME280;15333;50.010;20.020;2023-05-20T11:43:10;99532.25;;;18.69;87.04
28008;BME280;15333;50.010;20.020;2023-05-20T11:46:11;99532.97;;;18.71;84.58
28008;BME280;15333;50.010;20.020;2023-05-20T11:49:14;99531.38;;;18.31;87.80
28008;BME280;15333;50.010;20.020;2023-05-20T11:52:15;99531.53;;;18.30;88.01
28008;BME280;15333;50.010;20.020;2023-05-20T11:55:16;99523.13;;;18.23;87.65
28008;BME280;15333;50.010;20.020;2023-05-20T11:58:18;99522.53;;;18.29;88.96
28008;BME280;15333;50.010;20.020;2023-05-20T12:01:19;99513.47;;;18.48;86.57
28008;BME280;15333;50.010;20.020;2023-05-20T12:04:20;99511.69;;;18.76;88.13
28008;BME280;15333;50.010;20.020;2023-05-20T12:07:21;99507.88;;;18.96;86.93
28008;BME280;15333;50.010;20.020;2023-05-20T12:10:23;99507.94;;;19.32;85.73
28008;BME280;15333;50.010;20.020;2023-05-20T12:13:23;99511.38;;;19.69;84.52
28008;BME280;15333;50.010;20.020;2023-05-20T12:16:25;99500.00;;;19.21;85.05
28008;BME280;15333;50.010;20.020;2023-05-20T12:19:26;99503.09;;;19.26;87.40
28008;BME280;15333;50.010;20.020;2023-05-20T12:22:27;99496.91;;;19.15;86.15
28008;BME280;15333;50.010;20.020;2023-05-20T12:25:28;99489.56;;;18.98;86.83
28008;BME280;15333;50.010;20.020;2023-05-20T12:28:29;99483.94;;;19.09;86.51
28008;BME280;15333;50.010;20.020;2023-05-20T12:31:31;99477.09;;;19.05;85.69
28008;BME280;15333;50.010;20.020;2023-05-20T12:34:32;99479.25;;;19.47;85.61
28008;BME280;15333;50.010;20.020;2023-05-20T12:37:36;99470.56;;;19.79;83.79
28008;BME280;15333;50.010;20.020;2023-05-20T12:40:38;99466.78;;;19.98;83.77
28008;BME280;15333;50.010;20.020;2023-05-20T12:43:39;99452.81;;;19.92;83.31
28008;BME280;15333;50.010;20.020;2023-05-20T12:46:40;99457.03;;;20.13;83.85
28008;BME280;15333;50.010;20.020;2023-05-20T12:49:41;99444.84;;;20.17;82.49
28008;BME280;15333;50.010;20.020;2023-05-20T12:52:42;99446.22;;;19.95;82.89
28008;BME280;15333;50.010;20.020;2023-05-20T12:55:43;99435.66;;;20.18;83.10
28008;BME280;15333;50.010;20.020;2023-05-20T12:58:45;99427.69;;;20.16;80.41
28008;BME280;15333;50.010;20.020;2023-05-20T13:01:47;99420.03;;;20.20;79.56
28008;BME280;15333;50.010;20.020;2023-05-20T13:04:48;99426.88;;;20.32;79.90
28008;BME280;15333;50.010;20.020;2023-05-20T13:07:49;99427.16;;;20.81;80.35
28008;BME280;15333;50.010;20.020;2023-05-20T13:10:50;99426.34;;;20.54;77.45
28008;BME280;15333;50.010;20.020;2023-05-20T13:13:53;99420.13;;;20.70;79.08
28008;BME280;15333;50.010;20.020;2023-05-20T13:16:54;99419.63;;;20.66;79.34
28008;BME280;15333;50.010;20.020;2023-05-20T13:19:55;99407.69;;;20.59;80.02
28008;BME280;15333;50.010;20.020;2023-05-20T13:22:56;99409.38;;;20.60;78.57
28008;BME280;15333;50.010;20.020;2023-05-20T13:25:57;99405.69;;;20.78;80.06
28008;BME280;15333;50.010;20.020;2023-05-20T13:28:58;99403.72;;;20.96;80.91
28008;BME280;15333;50.010;20.020;2023-05-20T13:31:59;99407.13;;;21.06;78.87
28008;BME280;15333;50.010;20.020;2023-05-20T13:35:00;99402.34;;;20.92;78.82
28008;BME280;15333;50.010;20.020;2023-05-20T13:38:01;99398.91;;;20.90;79.02
28008;BME280;15333;50.010;20.020;2023-05-20T13:41:02;99398.63;;;21.09;79.39
28008;BME280;15333;50.010;20.020;2023-05-20T13:44:03;99394.25;;;21.32;78.97
28008;BME280;15333;50.010;20.020;2023-05-20T13:47:04;99388.78;;;21.32;79.97
28008;BME280;15333;50.010;20.020;2023-05-20T13:50:05;99400.84;;;21.14;81.04
28008;BME280;15333;50.010;20.020;2023-05-20T13:53:07;99380.06;;;21.13;80.61
28008;BME280;15333;50.010;20.020;2023-05-20T13:56:11;99379.28;;;21.36;79.51
28008;BME280;15333;50.010;20.020;2023-05-20T13:59:13;99374.84;;;21.43;78.78
28008;BME280;15333;50.010;20.020;2023-05-20T14:02:13;99374.00;;;21.59;80.00
28008;BME280;15333;50.010;20.020;2023-05-20T14:05:14;99373.84;;;21.53;77.71
28008;BME280;15333;50.010;20.020;2023-05-20T14:08:16;99367.72;;;21.51;73.36
28008;BME280;15333;50.010;20.020;2023-05-20T14:11:17;99369.53;;;21.74;73.59
28008;BME280;15333;50.010;20.020;2023-05-20T14:14:18;99367.00;;;21.81;77.37
28008;BME280;15333;50.010;20.020;2023-05-20T14:17:19;99360.72;;;21.64;78.47
28008;BME280;15333;50.010;20.020;2023-05-20T14:20:19;99359.16;;;21.54;80.49
28008;BME280;15333;50.010;20.020;2023-05-20T14:23:20;99345.75;;;21.36;80.02
28008;BME280;15333;50.010;20.020;2023-05-20T14:26:22;99352.38;;;21.49;80.26
28008;BME280;15333;50.010;20.020;2023-05-20T14:29:23;99352.22;;;21.43;79.30
28008;BME280;15333;50.010;20.020;2023-05-20T14:32:24;99350.66;;;21.48;77.47
28008;BME280;15333;50.010;20.020;2023-05-20T14:35:25;99352.00;;;21.69;73.38
28008;BME280;15333;50.010;20.020;2023-05-20T14:38:25;99353.88;;;21.76;68.46
28008;BME280;15333;50.010;20.020;2023-05-20T14:41:27;99350.94;;;21.94;68.76
28008;BME280;15333;50.010;20.020;2023-05-20T14:44:28;99358.44;;;22.00;67.59
28008;BME280;15333;50.010;20.020;2023-05-20T14:47:30;99357.69;;;22.22;67.24
28008;BME280;15333;50.010;20.020;2023-05-20T14:50:31;99358.00;;;22.27;66.66
28008;BME280;15333;50.010;20.020;2023-05-20T14:53:32;99347.78;;;22.30;67.43
28008;BME280;15333;50.010;20.020;2023-05-20T14:56:33;99357.16;;;22.27;66.43
28008;BME280;15333;50.010;20.020;2023-05-20T14:59:34;99355.59;;;22.33;65.80
28008;BME280;15333;50.010;20.020;2023-05-20T15:02:34;99344.63;;;22.49;64.30
28008;BME280;15333;50.010;20.020;2023-05-20T15:05:36;99340.16;;;22.56;64.28
28008;BME280;15333;50.010;20.020;2023-05-20T15:08:37;99337.13;;;22.51;64.79
28008;BME280;15333;50.010;20.020;2023-05-20T15:11:38;99344.88;;;22.62;65.54
28008;BME280;15333;50.010;20.020;2023-05-20T15:14:39;99328.59;;;22.46;65.01
28008;BME280;15333;50.010;20.020;2023-05-20T15:17:40;99340.44;;;22.61;64.76
28008;BME280;15333;50.010;20.020;2023-05-20T15:20:40;99325.09;;;22.60;63.50
28008;BME280;15333;50.010;20.020;2023-05-20T15:23:42;99328.66;;;22.38;63.90
28008;BME280;15333;50.010;20.020;2023-05-20T15:26:42;99321.81;;;22.42;63.10
28008;BME280;15333;50.010;20.020;2023-05-20T15:29:44;99319.28;;;22.63;64.57
28008;BME280;15333;50.010;20.020;2023-05-20T15:32:44;99316.19;;;22.74;62.26
28008;BME280;15333;50.010;20.020;2023-05-20T15:35:46;99315.44;;;23.26;60.37
28008;BME280;15333;50.010;20.020;2023-05-20T15:38:47;99312.59;;;23.42;59.35
28008;BME280;15333;50.010;20.020;2023-05-20T15:41:48;99305.56;;;23.62;57.89
28008;BME280;15333;50.010;20.020;2023-05-20T15:44:51;99295.50;;;23.63;58.16
28008;BME280;15333;50.010;20.020;2023-05-20T15:47:52;99300.97;;;23.63;61.79
28008;BME280;15333;50.010;20.020;2023-05-20T15:50:53;99301.91;;;23.10;62.91
28008;BME280;15333;50.010;20.020;2023-05-20T15:53:54;99297.25;;;22.95;63.03
28008;BME280;15333;50.010;20.020;2023-05-20T15:56:55;99307.09;;;23.04;62.96
28008;BME280;15333;50.010;20.020;2023-05-20T15:59:56;99304.00;;;23.08;62.28
28008;BME280;15333;50.010;20.020;2023-05-20T16:02:57;99312.53;;;22.82;62.12